Time;durP1;ratioP1;P1;durP2;ratioP2;P2;SDS_P1;SDS_P2;PMS_P1;PMS_P2;Temp;Humidity;BMP_temperature;BMP_pressure;BME280_temperature;BME280_humidity;BME280_pressure;Samples;Min_cycle;Max_cycle;Signal;HPM_P1;HPM_P2
2023/07/07 00:01:32;;;;;;;2.42;1.10;;;17.10;94.10;;;17.48;87.14;101303.69;5222129;28;20559;-49
2023/07/07 00:04:04;;;;;;;2.22;1.25;;;17.10;94.20;;;17.49;87.08;101313.38;5222287;28;20044;-48
2023/07/07 00:06:37;;;;;;;1.85;0.93;;;17.10;94.50;;;17.49;87.59;101310.72;5221337;28;20718;-49
2023/07/07 00:09:09;;;;;;;2.42;1.27;;;17.10;94.40;;;17.47;88.25;101309.81;5221837;28;20052;-47
2023/07/07 00:11:42;;;;;;;1.80;1.00;;;17.10;94.70;;;17.48;88.04;101308.97;5221817;28;20095;-48
2023/07/07 00:14:14;;;;;;;1.70;1.20;;;17.10;94.70;;;17.46;87.90;101315.06;5221832;28;20049;-48
2023/07/07 00:16:48;;;;;;;1.52;1.00;;;17.00;94.70;;;17.43;88.17;101315.91;5221668;28;20048;-48
2023/07/07 00:19:23;;;;;;;1.73;1.10;;;17.00;94.90;;;17.40;88.20;101315.84;5221823;28;20525;-48
2023/07/07 00:21:58;;;;;;;1.50;1.00;;;17.00;95.00;;;17.40;88.03;101313.22;5221756;28;20631;-47
2023/07/07 00:24:30;;;;;;;1.92;1.27;;;17.00;95.00;;;17.38;88.13;101311.44;5221741;28;20049;-47
2023/07/07 00:27:03;;;;;;;1.88;1.10;;;17.00;95.10;;;17.33;88.65;101314.88;5221814;28;20139;-48
2023/07/07 00:29:39;;;;;;;1.85;1.20;;;16.90;95.30;;;17.24;89.36;101308.59;5221577;28;20114;-49
2023/07/07 00:32:12;;;;;;;2.10;1.17;;;16.90;95.60;;;17.17;90.08;101315.50;5221707;28;20061;-48
2023/07/07 00:34:45;;;;;;;2.05;1.13;;;16.80;95.90;;;17.07;91.20;101316.19;5221779;28;20052;-49
2023/07/07 00:37:17;;;;;;;1.42;1.00;;;16.70;96.40;;;16.99;92.00;101308.19;5221625;28;20060;-49
2023/07/07 00:39:50;;;;;;;1.77;1.20;;;16.70;96.80;;;16.93;92.70;101313.34;5221619;28;20037;-48
2023/07/07 00:42:23;;;;;;;1.98;1.02;;;16.60;97.20;;;16.86;93.61;101314.09;5221224;28;20076;-50
2023/07/07 00:45:19;;;;;;;2.60;1.40;;;16.50;97.50;;;16.78;93.96;101305.19;5221830;28;20045;-48
2023/07/07 00:47:57;;;;;;;3.42;1.58;;;16.40;97.90;;;16.74;94.42;101311.25;5217660;28;20049;-47
2023/07/07 00:50:36;;;;;;;1.77;1.10;;;16.40;98.30;;;16.69;94.72;101310.22;5221456;28;20056;-47
2023/07/07 00:53:08;;;;;;;2.50;1.20;;;16.30;98.50;;;16.66;94.81;101316.34;5222706;28;20526;-49
2023/07/07 00:55:44;;;;;;;2.47;1.13;;;16.30;98.80;;;16.64;94.65;101314.56;5221601;28;20045;-49
2023/07/07 00:58:20;;;;;;;2.45;1.02;;;16.30;98.90;;;16.65;94.43;101311.06;5221589;28;20732;-50
2023/07/07 01:00:59;;;;;;;2.53;1.20;;;16.30;99.00;;;16.64;94.15;101315.44;5221518;28;20048;-49
2023/07/07 01:03:38;;;;;;;1.95;1.27;;;16.30;99.00;;;16.63;94.11;101312.78;5221357;28;20078;-47
2023/07/07 01:06:15;;;;;;;1.77;1.10;;;16.30;99.10;;;16.61;94.38;101304.84;5221251;28;20041;-47
2023/07/07 01:08:53;;;;;;;2.03;1.27;;;16.20;99.20;;;16.60;94.60;101312.72;5221127;28;20045;-47
2023/07/07 01:11:26;;;;;;;1.77;1.30;;;16.20;99.40;;;16.62;94.31;101318.88;5221195;28;20041;-47
2023/07/07 01:14:00;;;;;;;1.63;1.30;;;16.30;99.40;;;16.63;93.92;101312.78;5221209;28;20487;-48
2023/07/07 01:16:44;;;;;;;2.17;1.48;;;16.30;99.40;;;16.60;93.85;101308.34;5221251;28;20052;-48
2023/07/07 01:20:09;;;;;;;2.13;1.10;;;16.20;99.40;;;16.55;94.38;101312.63;5225519;28;20045;-47
2023/07/07 01:23:46;;;;;;;2.10;1.23;;;16.20;99.60;;;16.46;94.69;101318.59;5220605;28;20049;-48
2023/07/07 01:26:44;;;;;;;1.45;1.13;;;16.20;99.80;;;16.42;94.98;101316.75;5222558;28;20094;-49
2023/07/07 01:29:57;;;;;;;2.33;1.15;;;16.10;99.90;;;16.39;95.45;101313.19;5221461;28;20068;-49
2023/07/07 01:32:31;;;;;;;1.95;1.20;;;16.10;99.90;;;16.35;95.76;101317.50;5218224;28;20052;-48
2023/07/07 01:35:12;;;;;;;2.45;1.25;;;16.00;99.90;;;16.29;95.97;101314.75;5216511;28;20098;-48
2023/07/07 01:37:54;;;;;;;1.75;1.17;;;16.00;99.90;;;16.22;96.49;101308.47;5223726;28;20418;-48
2023/07/07 01:40:36;;;;;;;1.85;1.30;;;15.90;99.90;;;16.18;96.88;101314.56;5222723;28;20065;-49
2023/07/07 01:43:19;;;;;;;2.17;1.20;;;15.90;99.90;;;16.16;97.03;101310.09;5218207;28;20480;-48
2023/07/07 01:45:57;;;;;;;1.35;1.10;;;15.80;99.90;;;16.12;97.18;101311.81;5223694;28;20098;-48
2023/07/07 01:48:38;;;;;;;2.20;1.25;;;15.80;99.90;;;16.05;97.56;101311.66;5223734;28;20055;-49
2023/07/07 01:51:13;;;;;;;1.95;1.13;;;15.70;99.90;;;15.97;97.72;101309.75;5222774;28;20498;-48
2023/07/07 01:53:48;;;;;;;2.47;1.45;;;15.70;99.90;;;15.89;98.32;101306.06;5221184;28;20087;-48
2023/07/07 01:56:24;;;;;;;2.33;1.13;;;15.60;99.90;;;15.83;99.01;101312.91;5222283;28;20054;-48
2023/07/07 01:58:57;;;;;;;2.67;1.25;;;15.50;99.90;;;15.77;99.49;101310.16;5222732;28;20041;-48
2023/07/07 02:01:31;;;;;;;1.73;1.10;;;15.50;99.90;;;15.72;100.00;101308.34;5223376;28;20040;-48
2023/07/07 02:04:05;;;;;;;1.95;1.42;;;15.40;99.90;;;15.69;100.00;101310.00;5222827;28;20051;-48
2023/07/07 02:06:38;;;;;;;2.60;1.10;;;15.40;99.90;;;15.65;100.00;101313.44;5221566;28;20053;-48
2023/07/07 02:09:11;;;;;;;2.55;1.40;;;15.30;99.90;;;15.62;100.00;101321.22;5220287;28;20640;-48
2023/07/07 02:11:45;;;;;;;2.70;1.50;;;15.30;99.90;;;15.56;100.00;101308.78;5222629;28;20044;-48
2023/07/07 02:14:18;;;;;;;1.77;1.20;;;15.30;99.90;;;15.53;100.00;101311.38;5222916;28;20047;-48
2023/07/07 02:16:50;;;;;;;1.20;1.10;;;15.20;99.90;;;15.48;100.00;101307.75;5222026;28;20045;-48
2023/07/07 02:19:24;;;;;;;3.55;1.30;;;15.20;99.90;;;15.45;100.00;101315.53;5223217;28;20556;-48
2023/07/07 02:22:00;;;;;;;2.30;1.23;;;15.20;99.90;;;15.39;100.00;101313.69;5223005;28;20048;-48
2023/07/07 02:24:33;;;;;;;2.50;1.42;;;15.10;99.90;;;15.36;100.00;101310.97;5222478;28;20075;-48
2023/07/07 02:27:10;;;;;;;2.42;1.48;;;15.00;99.90;;;15.34;100.00;101315.31;5215358;28;20119;-48
2023/07/07 02:29:43;;;;;;;1.73;1.30;;;15.00;99.90;;;15.31;100.00;101309.97;5221909;28;20037;-48
2023/07/07 02:32:15;;;;;;;2.85;1.35;;;15.00;99.90;;;15.28;100.00;101312.53;5220881;28;20090;-48
2023/07/07 02:34:49;;;;;;;3.22;1.35;;;15.00;99.90;;;15.26;100.00;101311.63;5221740;28;20134;-48
2023/07/07 02:37:23;;;;;;;2.38;1.35;;;15.00;99.90;;;15.25;100.00;101312.44;5222549;28;20043;-48
2023/07/07 02:39:59;;;;;;;1.92;1.10;;;14.90;99.90;;;15.23;100.00;101322.03;5221098;28;20434;-47
2023/07/07 02:42:31;;;;;;;2.40;1.23;;;14.90;99.90;;;15.17;100.00;101317.50;5219235;28;20406;-48
2023/07/07 02:45:06;;;;;;;2.75;1.45;;;14.90;99.90;;;15.14;100.00;101317.47;5221568;28;20068;-48
2023/07/07 02:47:38;;;;;;;2.35;1.23;;;14.90;99.90;;;15.11;100.00;101324.34;5221088;28;20052;-48
2023/07/07 02:50:12;;;;;;;1.77;1.20;;;14.80;99.90;;;15.07;100.00;101319.91;5221424;28;20033;-49
2023/07/07 02:52:45;;;;;;;2.20;1.30;;;14.80;99.90;;;15.05;100.00;101332.06;5220467;28;20044;-49
2023/07/07 02:55:17;;;;;;;5.90;1.60;;;14.80;99.90;;;15.02;100.00;101326.78;5222276;28;20795;-48
2023/07/07 02:57:50;;;;;;;2.05;1.30;;;14.70;99.90;;;15.00;100.00;101328.47;5220640;28;20068;-48
2023/07/07 03:00:23;;;;;;;2.72;1.38;;;14.70;99.90;;;15.00;100.00;101331.09;5220506;28;20055;-47
2023/07/07 03:02:56;;;;;;;1.63;1.10;;;14.70;99.90;;;15.04;100.00;101335.56;5221718;28;20053;-48
2023/07/07 03:05:31;;;;;;;2.53;1.40;;;14.70;99.90;;;15.07;100.00;101328.66;5221905;28;20045;-49
2023/07/07 03:08:05;;;;;;;1.95;1.20;;;14.70;99.90;;;15.07;100.00;101331.28;5221955;28;20044;-48
2023/07/07 03:10:42;;;;;;;3.30;1.40;;;14.80;99.90;;;15.07;100.00;101335.66;5221813;28;20045;-48
2023/07/07 03:13:16;;;;;;;1.60;1.20;;;14.80;99.90;;;15.07;100.00;101347.03;5222217;28;20074;-48
2023/07/07 03:15:52;;;;;;;2.50;1.23;;;14.80;99.90;;;15.05;100.00;101338.22;5222166;28;20056;-48
2023/07/07 03:18:30;;;;;;;1.95;1.27;;;14.70;99.90;;;15.03;100.00;101331.16;5222011;28;20075;-47
2023/07/07 03:21:07;;;;;;;2.70;1.27;;;14.80;99.90;;;15.00;100.00;101341.59;5221867;28;20094;-48
2023/07/07 03:23:40;;;;;;;2.20;1.40;;;14.70;99.90;;;14.98;100.00;101343.28;5221859;28;20043;-48
2023/07/07 03:26:17;;;;;;;2.50;1.52;;;14.70;99.90;;;14.98;100.00;101343.28;5222050;28;20523;-48
2023/07/07 03:28:50;;;;;;;4.30;1.30;;;14.70;99.90;;;14.95;100.00;101341.47;5221414;28;20049;-48
2023/07/07 03:31:25;;;;;;;1.75;1.27;;;14.70;99.90;;;14.96;100.00;101343.25;5221748;28;20421;-48
2023/07/07 03:34:07;;;;;;;3.40;1.30;;;14.70;99.90;;;14.94;100.00;101342.31;5221500;28;20471;-49
2023/07/07 03:36:45;;;;;;;2.45;1.27;;;14.60;99.90;;;14.94;100.00;101334.47;5221619;28;20087;-48
2023/07/07 03:39:20;;;;;;;2.53;1.45;;;14.70;99.90;;;14.96;100.00;101345.88;5221765;28;20045;-48
2023/07/07 03:41:52;;;;;;;2.10;1.40;;;14.70;99.90;;;14.95;100.00;101341.47;5221709;28;20041;-48
2023/07/07 03:44:25;;;;;;;2.75;1.33;;;14.70;99.90;;;14.93;100.00;101341.44;5222505;28;20129;-49
2023/07/07 03:46:58;;;;;;;2.40;1.30;;;14.70;99.90;;;14.91;100.00;101343.13;5221802;28;20041;-49
2023/07/07 03:49:32;;;;;;;2.63;1.45;;;14.70;99.90;;;14.93;100.00;101349.31;5221626;28;20118;-48
2023/07/07 03:52:08;;;;;;;3.97;1.70;;;14.70;99.90;;;14.91;100.00;101344.84;5221190;28;20059;-48
2023/07/07 03:54:41;;;;;;;2.00;1.17;;;14.70;99.90;;;14.92;100.00;101344.00;5221587;28;20140;-49
2023/07/07 03:57:15;;;;;;;9.45;2.88;;;14.70;99.90;;;14.85;100.00;101345.59;5213566;28;20037;-49
2023/07/07 03:59:47;;;;;;;2.10;1.50;;;14.70;99.90;;;14.81;100.00;101351.63;5221303;28;20045;-48
2023/07/07 04:02:20;;;;;;;3.40;1.80;;;14.70;99.90;;;14.80;100.00;101349.84;5221402;28;20037;-48
2023/07/07 04:04:52;;;;;;;2.05;1.52;;;14.60;99.90;;;14.79;100.00;101350.66;5221785;28;20099;-48
2023/07/07 04:07:27;;;;;;;2.25;1.35;;;14.60;99.90;;;14.82;100.00;101349.88;5221535;28;20140;-48
2023/07/07 04:10:03;;;;;;;2.92;1.50;;;14.60;99.90;;;14.84;100.00;101361.28;5220962;28;20075;-48
2023/07/07 04:12:38;;;;;;;2.65;1.40;;;14.60;99.90;;;14.88;100.00;101355.28;5221337;28;20048;-49
2023/07/07 04:15:11;;;;;;;2.97;1.58;;;14.60;99.90;;;14.88;100.00;101356.19;5221549;28;20049;-48
2023/07/07 04:17:43;;;;;;;4.20;2.20;;;14.60;99.90;;;14.76;100.00;101355.84;5221298;28;20044;-48
2023/07/07 04:20:16;;;;;;;3.53;1.50;;;14.60;99.90;;;14.75;100.00;101348.84;5221016;28;20091;-48
2023/07/07 04:22:50;;;;;;;2.90;1.33;;;14.60;99.90;;;14.85;100.00;101356.09;5220936;28;20144;-52
2023/07/07 04:25:24;;;;;;;2.35;1.40;;;14.60;99.90;;;14.94;100.00;101360.72;5221243;28;20136;-49
2023/07/07 04:27:56;;;;;;;1.90;1.38;;;14.70;99.90;;;15.04;100.00;101361.81;5222270;28;20049;-49
2023/07/07 04:30:29;;;;;;;3.40;1.83;;;14.80;99.90;;;15.09;100.00;101352.31;5220726;28;20041;-48
2023/07/07 04:33:01;;;;;;;2.35;1.40;;;14.80;99.90;;;15.15;100.00;101357.72;5220757;28;20160;-48
2023/07/07 04:35:36;;;;;;;1.42;1.10;;;14.90;99.90;;;15.18;100.00;101360.41;5221142;28;20052;-48
2023/07/07 04:38:10;;;;;;;2.42;1.48;;;15.00;99.90;;;15.20;100.00;101359.63;5220881;28;20048;-49
2023/07/07 04:40:43;;;;;;;3.70;1.58;;;15.00;99.90;;;15.19;100.00;101357.84;5221065;28;20041;-49
2023/07/07 04:43:15;;;;;;;3.53;1.55;;;15.00;99.90;;;15.24;100.00;101360.56;5221516;28;20128;-48
2023/07/07 04:45:48;;;;;;;2.78;1.40;;;15.00;99.90;;;15.25;100.00;101362.34;5221351;28;20055;-48
2023/07/07 04:48:20;;;;;;;2.90;1.27;;;15.00;99.90;;;15.25;100.00;101358.84;5220879;28;20044;-48
2023/07/07 04:50:58;;;;;;;3.47;1.60;;;15.00;99.90;;;15.27;100.00;101359.78;5220672;28;20041;-48
2023/07/07 04:53:32;;;;;;;2.60;1.40;;;15.10;99.90;;;15.36;100.00;101354.75;5222814;28;20039;-48
2023/07/07 04:56:10;;;;;;;3.13;1.77;;;15.10;99.90;;;15.54;100.00;101360.44;5224733;28;20534;-48
2023/07/07 04:58:44;;;;;;;3.20;1.77;;;15.30;99.90;;;15.87;100.00;101365.59;5224519;28;20052;-49
2023/07/07 05:01:20;;;;;;;2.35;1.80;;;15.60;99.90;;;16.23;100.00;101367.22;5224884;28;20056;-48
2023/07/07 05:03:58;;;;;;;5.10;1.70;;;15.90;99.90;;;16.65;97.85;101372.47;5224774;28;20277;-49
2023/07/07 05:06:36;;;;;;;3.60;1.65;;;16.30;99.90;;;17.04;95.16;101367.09;5224821;28;20045;-49
2023/07/07 05:09:12;;;;;;;3.40;1.50;;;16.60;99.90;;;17.39;92.31;101364.16;5223996;28;20275;-49
2023/07/07 05:11:45;;;;;;;3.92;1.75;;;16.90;99.90;;;17.65;90.03;101364.56;5224874;28;20457;-49
2023/07/07 05:14:17;;;;;;;2.03;1.30;;;17.20;99.90;;;17.76;88.70;101364.75;5224706;28;20091;-49
2023/07/07 05:16:50;;;;;;;2.25;1.45;;;17.40;99.90;;;17.94;88.07;101367.66;5224298;28;20045;-50
2023/07/07 05:19:22;;;;;;;2.58;1.33;;;17.60;99.90;;;18.23;86.62;101365.38;5224112;28;20490;-49
2023/07/07 05:21:55;;;;;;;4.15;1.40;;;17.80;99.90;;;18.63;84.88;101366.72;5224166;28;20541;-50
2023/07/07 05:24:28;;;;;;;2.33;1.25;;;18.10;99.60;;;18.99;82.51;101370.66;5224398;28;20144;-49
2023/07/07 05:27:01;;;;;;;2.47;1.30;;;18.40;98.70;;;19.31;81.34;101368.31;5224252;28;20053;-50
2023/07/07 05:29:33;;;;;;;2.22;1.30;;;18.70;98.20;;;19.66;79.84;101368.59;5223901;28;20084;-49
2023/07/07 05:32:07;;;;;;;2.88;1.25;;;19.00;97.60;;;19.95;78.39;101365.22;5223880;28;20057;-50
2023/07/07 05:34:40;;;;;;;2.20;1.30;;;19.30;97.00;;;20.17;78.15;101369.75;5224513;28;20103;-49
2023/07/07 05:37:12;;;;;;;1.75;1.30;;;19.50;96.70;;;20.43;76.76;101376.94;5223763;28;20055;-50
2023/07/07 05:39:49;;;;;;;2.70;1.60;;;19.70;96.10;;;20.61;74.99;101377.03;5224091;28;20048;-49
2023/07/07 05:42:21;;;;;;;2.30;1.52;;;19.90;95.20;;;20.74;74.51;101378.81;5215782;28;20055;-49
2023/07/07 05:44:53;;;;;;;2.75;1.40;;;20.10;94.90;;;20.79;74.07;101378.81;5225511;28;20116;-49
2023/07/07 05:47:26;;;;;;;3.47;1.30;;;20.10;94.50;;;21.07;73.57;101378.00;5223719;28;20143;-50
2023/07/07 05:50:01;;;;;;;3.47;1.48;;;20.30;94.30;;;21.23;72.20;101389.47;5223404;28;20041;-50
2023/07/07 05:52:34;;;;;;;3.42;1.42;;;20.50;93.60;;;21.33;71.71;101375.38;5223855;28;20688;-50
2023/07/07 05:55:10;;;;;;;2.33;1.40;;;20.60;93.20;;;21.59;71.04;101382.44;5223767;28;20118;-50
2023/07/07 05:57:42;;;;;;;2.63;1.33;;;20.80;92.90;;;21.81;70.65;101378.84;5223667;28;20051;-50
2023/07/07 06:00:16;;;;;;;2.67;1.17;;;21.00;92.60;;;22.01;69.89;101375.25;5223246;28;20029;-50
2023/07/07 06:02:48;;;;;;;3.53;1.40;;;21.20;92.20;;;22.15;69.53;101379.66;5223768;28;20127;-58
2023/07/07 06:05:21;;;;;;;4.38;1.30;;;21.40;91.80;;;22.30;69.16;101373.44;5222299;28;20049;-49
2023/07/07 06:07:55;;;;;;;2.58;1.40;;;21.50;91.50;;;22.51;69.32;101371.56;5223511;28;20120;-49
2023/07/07 06:10:29;;;;;;;3.50;1.50;;;21.70;91.50;;;22.74;67.32;101359.00;5223362;28;20108;-49
2023/07/07 06:13:03;;;;;;;3.05;1.35;;;21.90;90.50;;;22.80;66.68;101366.94;5223564;28;20598;-48
2023/07/07 06:15:35;;;;;;;;;;;22.10;90.10;;;22.94;66.88;101373.06;5223792;28;20052;-49
2023/07/07 06:18:07;;;;;;;2.33;1.15;;;22.20;89.80;;;23.12;66.06;101376.50;5222763;28;19943;-49
2023/07/07 06:20:40;;;;;;;3.25;1.48;;;22.40;89.00;;;23.22;65.93;101368.44;5223399;28;20436;-50
2023/07/07 06:23:12;;;;;;;2.63;1.27;;;22.40;88.50;;;23.29;65.68;101366.63;5223158;28;20049;-51
2023/07/07 06:25:47;;;;;;;2.92;1.42;;;22.50;88.00;;;23.42;65.04;101376.25;5223430;28;20418;-50
2023/07/07 06:28:23;;;;;;;8.23;1.67;;;22.60;87.20;;;23.56;64.44;101369.03;5223186;28;20041;-50
2023/07/07 06:30:55;;;;;;;2.65;1.30;;;22.80;86.30;;;23.71;64.93;101373.34;5222693;28;20045;-49
2023/07/07 06:33:28;;;;;;;3.53;1.30;;;22.90;86.70;;;23.94;63.46;101375.78;5223540;28;20438;-50
2023/07/07 06:36:01;;;;;;;2.90;1.30;;;23.10;85.30;;;24.09;62.85;101370.25;5222957;28;20057;-50
2023/07/07 06:38:33;;;;;;;3.08;1.20;;;23.20;84.00;;;24.25;61.31;101376.25;5222512;28;20036;-49
2023/07/07 06:41:08;;;;;;;3.45;1.17;;;23.40;82.40;;;24.42;60.18;101377.88;5222914;28;20502;-51
2023/07/07 06:43:41;;;;;;;2.28;1.20;;;23.60;80.90;;;24.69;59.49;101377.50;5223062;28;20052;-50
2023/07/07 06:46:15;;;;;;;2.30;1.10;;;23.80;80.00;;;24.94;58.69;101377.13;5222309;28;20074;-49
2023/07/07 06:48:48;;;;;;;3.92;1.75;;;24.00;78.50;;;24.69;57.56;101382.81;5223155;28;20343;-48
2023/07/07 06:51:20;;;;;;;2.92;1.23;;;24.00;77.00;;;24.33;57.98;101389.50;5222647;28;20048;-48
2023/07/07 06:53:52;;;;;;;1.30;1.00;;;23.70;76.00;;;24.02;58.58;101384.53;5223301;28;20049;-49
2023/07/07 06:56:29;;;;;;;3.70;1.05;;;23.50;76.10;;;23.93;59.37;101376.66;5222926;28;20049;-48
2023/07/07 06:59:02;;;;;;;1.60;1.00;;;23.30;76.90;;;23.89;59.39;101382.91;5222066;28;20053;-48
2023/07/07 07:01:35;;;;;;;2.75;0.88;;;23.20;77.00;;;23.85;59.31;101386.50;5222290;28;20051;-48
2023/07/07 07:04:10;;;;;;;1.65;1.20;;;23.20;76.80;;;23.87;59.59;101381.19;5221731;28;20056;-49
2023/07/07 07:06:43;;;;;;;1.83;0.93;;;23.20;77.20;;;24.00;60.07;101381.03;5223082;28;20060;-48
2023/07/07 07:09:15;;;;;;;1.60;1.10;;;23.20;77.50;;;24.14;59.80;101382.66;5221795;28;20064;-49
2023/07/07 07:11:49;;;;;;;2.42;1.00;;;23.40;77.70;;;24.26;59.75;101398.50;5222161;28;20045;-48
2023/07/07 07:14:22;;;;;;;2.03;0.90;;;23.50;77.60;;;24.38;59.48;101389.47;5222024;28;20140;-48
2023/07/07 07:16:54;;;;;;;3.13;1.13;;;23.50;77.10;;;24.48;59.66;101400.00;5221981;28;20131;-48
2023/07/07 07:19:26;;;;;;;2.63;0.90;;;23.60;77.00;;;24.55;58.33;101395.47;5221879;28;20048;-48
2023/07/07 07:21:59;;;;;;;3.28;1.13;;;23.70;75.80;;;24.53;58.12;101400.81;5221400;28;20037;-49
2023/07/07 07:24:31;;;;;;;1.40;1.00;;;23.70;75.30;;;24.63;58.00;101394.44;5222312;28;20049;-48
2023/07/07 07:27:16;;;;;;;2.25;1.23;;;23.80;75.00;;;24.79;57.46;101395.13;5220295;28;20044;-48
2023/07/07 07:29:56;;;;;;;1.50;0.80;;;23.90;74.40;;;24.94;57.20;101396.69;5221851;28;20533;-48
2023/07/07 07:32:37;;;;;;;2.50;1.00;;;24.00;74.10;;;25.13;56.47;101395.53;5211464;28;20543;-48
2023/07/07 07:35:12;;;;;;;1.55;1.30;;;24.20;73.40;;;25.33;56.38;101383.66;5216486;28;20799;-49
2023/07/07 07:37:44;;;;;;;1.98;0.90;;;24.30;73.40;;;25.55;56.16;101387.69;5221248;28;20044;-49
2023/07/07 07:40:17;;;;;;;1.77;1.02;;;24.60;73.20;;;25.64;55.06;101389.34;5220015;28;20049;-49
2023/07/07 07:42:51;;;;;;;1.67;1.00;;;24.60;71.90;;;25.72;54.88;101390.06;5215172;28;20081;-48
2023/07/07 07:45:25;;;;;;;3.33;0.90;;;24.70;71.50;;;25.81;54.73;101386.38;5226827;28;20040;-47
2023/07/07 07:47:57;;;;;;;2.63;1.08;;;24.90;71.30;;;25.90;54.81;101386.22;5221464;28;20048;-47
2023/07/07 07:50:31;;;;;;;2.03;1.10;;;24.90;71.20;;;26.00;54.15;101385.13;5220888;28;20124;-48
2023/07/07 07:53:03;;;;;;;1.33;1.00;;;25.00;70.30;;;26.16;54.13;101391.94;5221190;28;20045;-48
2023/07/07 07:55:36;;;;;;;1.35;0.90;;;25.10;70.30;;;26.34;53.90;101384.41;5221497;28;20037;-47
2023/07/07 07:58:10;;;;;;;1.85;1.00;;;25.20;70.10;;;26.54;53.17;101386.69;5221041;28;20045;-48
2023/07/07 08:00:43;;;;;;;1.83;1.05;;;25.40;69.40;;;26.73;53.12;101388.03;5219527;28;20052;-48
2023/07/07 08:03:15;;;;;;;2.72;1.00;;;25.60;69.40;;;27.03;53.09;101386.47;5219035;28;20049;-48
2023/07/07 08:05:47;;;;;;;3.42;1.30;;;25.80;69.50;;;27.28;52.00;101376.94;5221319;28;20049;-48
2023/07/07 08:08:23;;;;;;;2.20;1.17;;;26.00;68.40;;;27.43;51.04;101383.69;5220515;28;20052;-47
2023/07/07 08:10:56;;;;;;;1.77;1.08;;;26.10;67.30;;;27.72;50.83;101393.69;5220072;28;20513;-48
2023/07/07 08:13:30;;;;;;;1.75;1.00;;;26.30;67.00;;;28.12;50.26;101387.22;5217316;28;20546;-48
2023/07/07 08:16:02;;;;;;;1.10;1.00;;;26.60;66.70;;;28.44;49.70;101388.13;5236937;28;20048;-48
2023/07/07 08:18:34;;;;;;;1.33;1.00;;;26.80;66.20;;;29.02;49.59;101387.22;5220954;28;20065;-48
2023/07/07 08:21:07;;;;;;;1.75;0.90;;;27.10;65.90;;;29.69;49.13;101390.31;5220638;28;20049;-48
2023/07/07 08:23:40;;;;;;;2.92;1.13;;;27.60;66.00;;;30.43;47.24;101388.50;5220225;28;20040;-48
2023/07/07 08:26:12;;;;;;;2.13;1.05;;;28.00;64.90;;;31.02;45.74;101384.41;5214453;28;20057;-48
2023/07/07 08:28:46;;;;;;;1.40;0.82;;;28.30;63.20;;;31.76;44.86;101391.16;5210394;28;20095;-49
2023/07/07 08:31:18;;;;;;;;;;;28.80;62.60;;;32.28;43.41;101406.84;5216318;28;20045;-49
2023/07/07 08:33:51;;;;;;;;;;;29.10;60.90;;;32.87;42.85;101397.78;5222586;28;19955;-51
2023/07/07 08:36:24;;;;;;;2.55;1.10;;;29.50;60.20;;;33.58;41.80;101401.41;5231581;28;19929;-50
2023/07/07 08:39:02;;;;;;;1.98;0.93;;;29.80;59.60;;;34.70;40.77;101398.97;5232058;28;20057;-50
2023/07/07 08:41:34;;;;;;;1.40;1.02;;;30.30;59.20;;;35.41;38.92;101395.78;5233508;28;20516;-51
2023/07/07 08:44:13;;;;;;;1.30;0.90;;;30.90;57.40;;;36.63;37.92;101415.31;5225144;28;20094;-51
2023/07/07 08:47:03;;;;;;;1.65;1.10;;;31.70;56.90;;;37.92;36.10;101402.13;5225340;28;20502;-51
2023/07/07 08:49:47;;;;;;;2.13;1.00;;;32.70;55.00;;;39.07;34.88;101401.94;5220582;28;20137;-48
2023/07/07 08:52:36;;;;;;;2.42;1.00;;;33.80;53.70;;;39.88;33.26;101404.72;5224311;28;20037;-51
2023/07/07 08:55:36;;;;;;;2.45;1.10;;;34.60;51.40;;;40.27;32.26;101405.28;5223574;28;20510;-52
2023/07/07 08:58:18;;;;;;;2.53;1.20;;;35.40;49.80;;;40.40;31.22;101402.44;5223026;28;20742;-51
2023/07/07 09:01:07;;;;;;;1.80;1.17;;;35.70;47.90;;;40.49;31.41;101409.03;5220326;28;20409;-51
2023/07/07 09:04:02;;;;;;;2.15;1.10;;;36.00;47.60;;;40.94;30.96;101407.09;5224557;28;20049;-50
2023/07/07 09:06:52;;;;;;;1.63;0.93;;;36.40;47.20;;;41.46;30.95;101405.44;5223907;28;20445;-52
2023/07/07 09:09:45;;;;;;;2.47;1.00;;;36.70;47.00;;;41.80;29.84;101394.31;5221398;28;20048;-52
2023/07/07 09:12:31;;;;;;;2.53;1.30;;;37.10;45.90;;;41.82;29.36;101393.19;5223783;28;20444;-54
2023/07/07 09:15:12;;;;;;;3.30;1.10;;;37.20;44.60;;;41.79;28.32;101389.84;5223491;28;20053;-51
2023/07/07 09:18:09;;;;;;;11.20;2.10;;;37.20;43.70;;;41.54;28.53;101389.25;5223973;28;20045;-52
2023/07/07 09:20:52;;;;;;;3.63;1.40;;;37.40;43.60;;;41.08;28.73;101390.44;5220883;28;21821;-51
2023/07/07 09:23:29;;;;;;;4.28;1.48;;;37.00;43.30;;;41.02;29.36;101384.59;5231889;28;20060;-53
2023/07/07 09:26:07;;;;;;;6.40;1.73;;;36.90;43.90;;;40.95;28.55;101384.25;5223798;28;20063;-53
2023/07/07 09:28:47;;;;;;;6.05;1.70;;;36.90;43.30;;;40.67;28.67;101383.78;5215525;28;20036;-52
2023/07/07 09:31:28;;;;;;;6.43;1.90;;;36.90;43.00;;;40.03;29.42;101380.81;5219149;28;20053;-51
2023/07/07 09:34:03;;;;;;;2.70;1.38;;;36.60;43.20;;;39.04;29.76;101370.31;5221537;28;20040;-51
2023/07/07 09:36:41;;;;;;;3.53;1.50;;;36.10;43.00;;;37.90;30.42;101363.28;5221524;28;20069;-51
2023/07/07 09:39:51;;;;;;;8.77;2.30;;;35.50;43.10;;;37.05;31.69;101363.75;5222055;28;20152;-51
2023/07/07 09:42:38;;;;;;;6.10;1.75;;;35.10;43.70;;;36.24;32.66;101361.72;5223517;28;20049;-51
2023/07/07 09:45:26;;;;;;;3.20;1.30;;;34.60;44.30;;;35.30;33.88;101361.16;5223314;28;20048;-51
2023/07/07 09:48:12;;;;;;;2.83;1.60;;;34.00;44.80;;;34.50;33.37;101356.78;5223646;28;20830;-51
2023/07/07 09:50:55;;;;;;;2.83;1.40;;;33.40;44.30;;;34.05;34.65;101351.22;5215326;28;20127;-50
2023/07/07 09:53:31;;;;;;;6.20;2.80;;;32.90;45.10;;;33.75;35.55;101349.16;5221733;28;20550;-51
2023/07/07 09:56:05;;;;;;;12.73;6.18;;;32.60;46.00;;;33.47;35.64;101349.75;5221695;28;20103;-51
2023/07/07 09:58:55;;;;;;;6.03;2.67;;;32.30;45.80;;;33.05;36.55;101350.94;5222721;28;20098;-51
2023/07/07 10:01:31;;;;;;;3.97;2.30;;;32.00;46.50;;;32.88;37.46;101350.94;5222828;28;20168;-51
2023/07/07 10:04:11;;;;;;;3.50;1.75;;;31.80;47.20;;;32.75;38.44;101345.22;5219753;28;20064;-51
2023/07/07 10:06:51;;;;;;;2.75;1.50;;;31.60;48.00;;;32.70;38.15;101343.69;5216104;28;20567;-53
2023/07/07 10:09:26;;;;;;;3.55;1.30;;;31.50;47.80;;;32.43;37.54;101344.09;5223348;28;20487;-52
2023/07/07 10:11:59;;;;;;;2.60;1.50;;;31.40;47.20;;;32.42;38.12;101339.66;5223265;28;20483;-52
2023/07/07 10:14:32;;;;;;;1.90;1.33;;;31.30;47.80;;;32.51;38.57;101347.28;5222807;28;20093;-53
2023/07/07 10:17:18;;;;;;;2.33;1.30;;;31.30;48.30;;;32.40;36.97;101344.22;5222976;28;20537;-51
2023/07/07 10:19:54;;;;;;;7.60;3.00;;;31.30;47.00;;;31.82;36.14;101337.00;5217473;28;20041;-51
2023/07/07 10:22:29;;;;;;;9.63;4.68;;;30.90;45.80;;;31.60;36.97;101333.47;5222818;28;20091;-53
2023/07/07 10:25:02;;;;;;;10.75;5.60;;;30.70;46.40;;;31.59;36.21;101332.59;5223032;28;20064;-51
2023/07/07 10:27:34;;;;;;;6.30;3.20;;;30.70;46.00;;;31.38;37.37;101330.84;5222630;28;20048;-51
2023/07/07 10:30:12;;;;;;;4.88;2.65;;;30.50;46.90;;;31.36;36.87;101340.81;5222443;28;20056;-51
2023/07/07 10:32:49;;;;;;;14.20;6.43;;;30.40;46.50;;;31.08;38.06;101333.00;5222839;28;20045;-51
2023/07/07 10:35:25;;;;;;;8.95;4.75;;;30.20;47.30;;;31.03;37.67;101333.19;5222650;28;20048;-51
2023/07/07 10:38:03;;;;;;;6.05;3.65;;;30.20;46.90;;;31.11;37.57;101321.25;5222443;28;20434;-50
2023/07/07 10:40:41;;;;;;;4.78;2.40;;;30.20;47.10;;;31.23;36.53;101327.00;5221314;28;20459;-51
2023/07/07 10:43:15;;;;;;;4.45;2.65;;;30.20;46.20;;;31.32;37.12;101323.91;5222538;28;20095;-50
2023/07/07 10:45:49;;;;;;;4.20;2.10;;;30.30;46.90;;;31.49;37.05;101312.38;5222693;28;20045;-51
2023/07/07 10:48:22;;;;;;;3.97;2.78;;;30.40;46.90;;;31.59;37.19;101316.44;5222240;28;20477;-50